createdAt,value
2022-11-16T00:00:40.069Z,15.90
2022-11-16T00:03:42.811Z,14.30
2022-11-16T00:06:46.408Z,14.52
2022-11-16T00:09:48.656Z,16.30
2022-11-16T00:12:50.831Z,13.30
2022-11-16T00:15:57.172Z,14.38
2022-11-16T00:19:03.365Z,15.50
2022-11-16T00:22:05.564Z,16.25
2022-11-16T00:25:08.171Z,15.50
2022-11-16T00:28:11.090Z,15.10
2022-11-16T00:31:13.861Z,13.90
2022-11-16T00:34:16.629Z,15.18
2022-11-16T00:37:18.944Z,16.02
2022-11-16T00:40:21.668Z,15.67
2022-11-16T00:43:24.845Z,16.60
2022-11-16T00:46:27.346Z,15.02
2022-11-16T00:49:29.645Z,15.18
2022-11-16T00:52:32.039Z,15.07
2022-11-16T00:55:34.991Z,14.13
2022-11-16T00:58:38.534Z,15.90
2022-11-16T01:01:43.759Z,14.07
2022-11-16T01:04:46.268Z,14.82
2022-11-16T01:07:49.261Z,13.80
2022-11-16T01:10:51.464Z,13.63
2022-11-16T01:13:54.118Z,14.50
2022-11-16T01:16:56.303Z,15.60
2022-11-16T01:19:58.500Z,14.07
2022-11-16T01:23:00.710Z,15.55
2022-11-16T01:26:02.985Z,13.63
2022-11-16T01:29:09.020Z,14.77
2022-11-16T01:32:15.881Z,14.95
2022-11-16T01:35:19.302Z,14.35
2022-11-16T01:38:27.129Z,14.35
2022-11-16T01:41:33.175Z,14.20
2022-11-16T01:44:39.177Z,13.57
2022-11-16T01:47:46.709Z,14.20
2022-11-16T01:50:54.587Z,13.90
2022-11-16T01:53:58.442Z,13.75
2022-11-16T01:57:04.606Z,13.30
2022-11-16T02:00:14.517Z,13.07
2022-11-16T02:03:22.700Z,14.02
2022-11-16T02:06:27.648Z,15.23
2022-11-16T02:10:17.019Z,13.70
2022-11-16T02:13:34.831Z,14.83
2022-11-16T02:16:51.771Z,13.07
2022-11-16T02:20:33.289Z,12.65
2022-11-16T02:24:00.543Z,13.73
2022-11-16T02:27:56.578Z,14.02
2022-11-16T02:31:02.995Z,13.50
2022-11-16T02:34:10.280Z,12.30
2022-11-16T02:37:17.523Z,14.80
2022-11-16T02:40:23.876Z,13.50
2022-11-16T02:43:34.160Z,13.43
2022-11-16T02:46:39.330Z,14.07
2022-11-16T02:49:49.196Z,13.80
2022-11-16T02:52:51.448Z,13.45
2022-11-16T02:55:53.712Z,15.65
2022-11-16T02:58:59.368Z,12.27
2022-11-16T03:02:35.579Z,12.80
2022-11-16T03:05:40.683Z,13.37
2022-11-16T03:09:05.914Z,14.90
2022-11-16T03:12:11.843Z,14.02
2022-11-16T03:15:14.218Z,12.50
2022-11-16T03:18:18.868Z,11.63
2022-11-16T03:21:36.553Z,12.33
2022-11-16T03:24:39.205Z,12.27
2022-11-16T03:27:48.312Z,12.50
2022-11-16T03:30:57.671Z,13.00
2022-11-16T03:34:08.974Z,12.70
2022-11-16T03:37:12.679Z,13.53
2022-11-16T03:40:18.314Z,12.55
2022-11-16T03:43:21.243Z,13.23
2022-11-16T03:46:24.653Z,12.73
2022-11-16T03:49:30.725Z,12.80
2022-11-16T03:52:33.764Z,12.67
2022-11-16T03:55:36.285Z,13.32
2022-11-16T03:58:38.815Z,11.75
2022-11-16T04:01:44.678Z,11.50
2022-11-16T04:05:07.180Z,12.13
2022-11-16T04:08:33.871Z,12.87
2022-11-16T04:11:55.776Z,11.77
2022-11-16T04:15:16.797Z,11.93
2022-11-16T04:18:37.449Z,12.93
2022-11-16T04:22:05.007Z,12.63
2022-11-16T04:25:30.779Z,12.80
2022-11-16T04:28:35.313Z,11.57
2022-11-16T04:31:58.707Z,11.70
2022-11-16T04:35:19.803Z,11.63
2022-11-16T04:38:22.267Z,12.17
2022-11-16T04:41:43.229Z,12.73
2022-11-16T04:45:04.505Z,11.88
2022-11-16T04:48:14.300Z,11.95
2022-11-16T04:51:16.603Z,12.02
2022-11-16T04:54:19.188Z,11.53
2022-11-16T04:57:21.379Z,10.87
2022-11-16T05:00:25.599Z,12.23
2022-11-16T05:03:28.005Z,11.98
2022-11-16T05:06:31.116Z,11.07
2022-11-16T05:09:33.295Z,11.23
2022-11-16T05:12:35.872Z,12.17
2022-11-16T05:15:40.683Z,10.50
2022-11-16T05:18:43.019Z,11.13
2022-11-16T05:21:47.228Z,12.13
2022-11-16T05:24:49.564Z,10.50
2022-11-16T05:27:51.814Z,10.90
2022-11-16T05:30:54.086Z,11.48
2022-11-16T05:38:42.612Z,10.27
2022-11-16T05:41:51.678Z,10.77
2022-11-16T05:44:54.087Z,11.43
2022-11-16T05:47:56.318Z,10.68
2022-11-16T05:51:02.004Z,10.18
2022-11-16T05:54:41.081Z,10.20
2022-11-16T05:57:43.303Z,10.03
2022-11-16T06:00:53.315Z,11.43
2022-11-16T06:03:55.955Z,9.63
2022-11-16T06:06:58.922Z,9.63
2022-11-16T06:10:15.007Z,11.35
2022-11-16T06:13:19.737Z,10.17
2022-11-16T06:16:22.630Z,10.17
2022-11-16T06:19:29.579Z,9.57
2022-11-16T06:22:34.506Z,13.07
2022-11-16T06:25:39.769Z,9.45
2022-11-16T06:28:42.577Z,10.80
2022-11-16T06:31:44.800Z,9.33
2022-11-16T06:34:47.718Z,10.23
2022-11-16T06:37:50.341Z,9.98
2022-11-16T06:40:54.791Z,10.13
2022-11-16T06:43:59.221Z,11.73
2022-11-16T06:47:06.608Z,9.77
2022-11-16T06:50:11.005Z,10.50
2022-11-16T06:53:14.217Z,12.27
2022-11-16T06:56:17.352Z,9.50
2022-11-16T06:59:25.173Z,10.13
2022-11-16T07:02:30.669Z,11.30
2022-11-16T07:05:35.008Z,10.80
2022-11-16T07:08:37.602Z,10.23
2022-11-16T07:11:39.813Z,13.05
2022-11-16T07:14:46.414Z,11.57
2022-11-16T07:17:49.865Z,13.70
2022-11-16T07:20:53.738Z,13.45
2022-11-16T07:24:06.388Z,13.57
2022-11-16T07:27:09.329Z,15.27
2022-11-16T07:30:16.758Z,12.77
2022-11-16T07:33:26.870Z,10.70
2022-11-16T07:36:49.386Z,12.38
2022-11-16T07:39:52.786Z,16.05
2022-11-16T07:42:58.637Z,13.02
2022-11-16T07:51:32.407Z,13.97
2022-11-16T07:54:57.521Z,13.60
2022-11-16T07:58:02.131Z,15.45
2022-11-16T08:01:08.415Z,16.02
2022-11-16T08:04:10.946Z,15.57
2022-11-16T08:07:14.665Z,15.30
2022-11-16T08:10:23.997Z,14.80
2022-11-16T08:13:26.954Z,14.32
2022-11-16T08:16:29.476Z,13.38
2022-11-16T08:19:42.355Z,14.63
2022-11-16T08:28:17.783Z,13.68
2022-11-16T08:31:57.442Z,15.73
2022-11-16T08:34:58.662Z,14.48
2022-11-16T08:38:01.616Z,14.13
2022-11-16T08:41:04.308Z,16.07
2022-11-16T08:44:07.052Z,17.33
2022-11-16T08:47:15.232Z,18.25
2022-11-16T08:55:54.908Z,15.23
2022-11-16T08:58:59.435Z,16.40
2022-11-16T09:02:03.446Z,16.95
2022-11-16T09:05:06.384Z,14.35
2022-11-16T09:08:08.688Z,18.67
2022-11-16T09:11:14.015Z,17.77
2022-11-16T09:14:16.241Z,17.30
2022-11-16T09:17:22.942Z,18.38
2022-11-16T09:20:26.461Z,21.48
2022-11-16T09:23:31.820Z,16.00
2022-11-16T09:27:07.167Z,18.73
2022-11-16T09:30:10.142Z,17.97
2022-11-16T09:33:13.434Z,19.63
2022-11-16T09:36:16.067Z,21.55
2022-11-16T09:39:30.660Z,16.90
2022-11-16T09:42:49.663Z,19.37
2022-11-16T09:45:57.801Z,17.80
2022-11-16T09:49:07.945Z,18.77
2022-11-16T09:52:36.515Z,20.52
2022-11-16T09:55:48.789Z,19.85
2022-11-16T09:59:13.566Z,18.63
2022-11-16T10:02:59.950Z,21.30
2022-11-16T10:06:47.504Z,19.48
2022-11-16T10:09:50.208Z,20.38
2022-11-16T10:13:10.215Z,19.27
2022-11-16T10:16:34.931Z,22.00
2022-11-16T10:20:01.151Z,20.93
2022-11-16T10:23:39.388Z,19.50
2022-11-16T10:35:56.070Z,21.73
2022-11-16T10:39:00.489Z,23.70
2022-11-16T10:42:12.462Z,25.80
2022-11-16T10:45:38.401Z,25.25
2022-11-16T10:49:16.426Z,19.08
2022-11-16T10:52:18.728Z,22.07
2022-11-16T10:55:22.557Z,23.53
2022-11-16T10:58:24.772Z,21.77
2022-11-16T11:01:33.678Z,19.08
2022-11-16T11:09:42.250Z,20.93
2022-11-16T11:18:26.098Z,23.48
2022-11-16T11:30:21.141Z,24.77
2022-11-16T11:34:48.573Z,22.70
2022-11-16T11:37:54.533Z,21.00
2022-11-16T11:42:04.248Z,25.42
2022-11-16T11:46:59.748Z,22.70
2022-11-16T12:01:58.204Z,22.75
2022-11-16T12:05:20.283Z,23.13
2022-11-16T12:09:07.747Z,22.67
2022-11-16T12:12:35.620Z,25.07
2022-11-16T12:15:46.815Z,23.63
2022-11-16T12:18:57.937Z,24.90
2022-11-16T12:22:41.067Z,24.13
2022-11-16T12:26:23.340Z,26.53
2022-11-16T12:30:34.908Z,23.17
2022-11-16T12:34:12.120Z,20.45
2022-11-16T12:42:22.861Z,28.42
2022-11-16T12:45:47.717Z,28.07
2022-11-16T12:48:49.987Z,23.73
2022-11-16T12:52:33.802Z,26.63
2022-11-16T12:56:00.346Z,24.45
2022-11-16T12:59:21.112Z,26.42
2022-11-16T13:02:49.610Z,26.40
2022-11-16T13:05:57.784Z,25.60
2022-11-16T13:09:06.183Z,27.23
2022-11-16T13:12:17.058Z,26.27
2022-11-16T13:16:03.129Z,27.33
2022-11-16T13:19:10.391Z,27.80
2022-11-16T13:22:22.015Z,25.27
2022-11-16T13:25:40.565Z,30.08
2022-11-16T13:28:59.912Z,25.25
2022-11-16T13:32:22.791Z,26.13
2022-11-16T13:35:25.811Z,23.20
2022-11-16T13:38:52.205Z,24.63
2022-11-16T13:42:13.217Z,20.90
2022-11-16T13:45:17.062Z,20.83
2022-11-16T13:48:24.977Z,20.25
2022-11-16T13:51:27.286Z,17.73
2022-11-16T13:54:46.015Z,20.40
2022-11-16T13:57:55.574Z,19.33
2022-11-16T14:01:11.027Z,18.50
2022-11-16T14:04:41.886Z,19.70
2022-11-16T14:07:49.808Z,19.63
2022-11-16T14:10:52.157Z,18.30
2022-11-16T14:13:54.797Z,20.35
2022-11-16T14:16:57.025Z,16.75
2022-11-16T14:19:59.355Z,21.17
2022-11-16T14:23:22.479Z,15.40
2022-11-16T14:27:10.688Z,17.13
2022-11-16T14:30:30.117Z,14.02
2022-11-16T14:33:36.025Z,15.45
2022-11-16T14:36:44.408Z,18.30
2022-11-16T14:39:46.729Z,29.17
2022-11-16T14:43:15.912Z,18.57
2022-11-16T14:46:27.991Z,16.17
2022-11-16T14:49:34.323Z,15.27
2022-11-16T14:52:47.552Z,15.82
2022-11-16T14:55:49.867Z,17.83
2022-11-16T14:58:56.853Z,19.80
2022-11-16T15:02:05.025Z,16.67
2022-11-16T15:05:07.760Z,21.10
2022-11-16T15:08:22.162Z,15.68
2022-11-16T15:11:50.140Z,23.07
2022-11-16T15:14:54.754Z,25.00
2022-11-16T15:17:59.906Z,18.90
2022-11-16T15:21:02.163Z,20.10
2022-11-16T15:27:41.535Z,20.50
2022-11-16T15:30:48.424Z,23.13
2022-11-16T15:33:50.791Z,26.13
2022-11-16T15:36:53.051Z,21.13
2022-11-16T15:39:57.421Z,20.15
2022-11-16T15:43:01.612Z,18.63
2022-11-16T15:46:05.930Z,21.30
2022-11-16T15:49:30.518Z,20.45
2022-11-16T15:52:47.310Z,24.02
2022-11-16T15:55:50.130Z,18.33
2022-11-16T15:58:58.641Z,19.23
2022-11-16T16:02:00.935Z,18.17
2022-11-16T16:05:03.305Z,18.98
2022-11-16T16:08:07.221Z,18.65
2022-11-16T16:11:27.462Z,19.38
2022-11-16T16:14:31.255Z,23.00
2022-11-16T16:17:33.510Z,15.60
2022-11-16T16:20:36.020Z,15.35
2022-11-16T16:23:50.627Z,17.88
2022-11-16T16:26:52.811Z,18.38
2022-11-16T16:29:57.338Z,17.20
2022-11-16T16:32:59.542Z,18.10
2022-11-16T16:36:02.235Z,19.90
2022-11-16T16:39:04.494Z,16.58
2022-11-16T16:42:10.823Z,15.02
2022-11-16T16:45:18.528Z,17.03
2022-11-16T16:48:20.810Z,16.57
2022-11-16T16:51:22.994Z,19.02
2022-11-16T16:54:25.573Z,14.30
2022-11-16T16:57:27.813Z,18.83
2022-11-16T17:00:30.673Z,15.93
2022-11-16T17:03:33.218Z,18.50
2022-11-16T17:06:36.014Z,15.13
2022-11-16T17:09:38.257Z,17.48
2022-11-16T17:12:40.588Z,16.10
2022-11-16T17:15:42.815Z,14.27
2022-11-16T17:18:45.436Z,15.10
2022-11-16T17:21:47.789Z,13.63
2022-11-16T17:24:50.320Z,15.77
2022-11-16T17:27:52.497Z,14.23
2022-11-16T17:30:54.657Z,13.47
2022-11-16T17:33:59.820Z,15.23
2022-11-16T17:37:02.040Z,13.90
2022-11-16T17:40:04.727Z,17.23
2022-11-16T17:43:06.909Z,17.05
2022-11-16T17:46:17.425Z,15.93
2022-11-16T17:49:19.640Z,13.73
2022-11-16T17:52:21.857Z,14.05
2022-11-16T17:55:24.101Z,11.95
2022-11-16T17:58:28.036Z,13.55
2022-11-16T18:01:30.431Z,15.50
2022-11-16T18:04:32.685Z,12.27
2022-11-16T18:07:36.187Z,11.48
2022-11-16T18:10:38.771Z,15.20
2022-11-16T18:13:43.538Z,12.70
2022-11-16T18:16:47.907Z,13.70
2022-11-16T18:19:50.184Z,11.83
2022-11-16T18:22:52.424Z,13.98
2022-11-16T18:25:55.711Z,12.32
2022-11-16T18:28:57.944Z,11.52
2022-11-16T18:32:00.636Z,13.27
2022-11-16T18:35:04.729Z,11.10
2022-11-16T18:38:08.186Z,11.25
2022-11-16T18:41:13.470Z,12.13
2022-11-16T18:44:15.706Z,11.38
2022-11-16T18:47:17.904Z,12.70
2022-11-16T18:50:26.481Z,14.60
2022-11-16T18:53:30.669Z,10.40
2022-11-16T18:56:34.843Z,11.80
2022-11-16T18:59:37.107Z,9.75
2022-11-16T19:02:39.326Z,11.20
2022-11-16T19:05:42.083Z,10.57
2022-11-16T19:08:47.837Z,11.68
2022-11-16T19:11:54.345Z,13.57
2022-11-16T19:14:56.564Z,14.13
2022-11-16T19:18:19.846Z,13.03
2022-11-16T19:21:24.426Z,9.23
2022-11-16T19:24:26.663Z,14.68
2022-11-16T19:27:29.801Z,12.68
2022-11-16T19:30:32.084Z,12.25
2022-11-16T19:33:34.814Z,10.30
2022-11-16T19:36:37.545Z,10.27
2022-11-16T19:39:39.995Z,10.73
2022-11-16T19:42:42.935Z,9.63
2022-11-16T19:45:45.221Z,10.20
2022-11-16T19:48:49.352Z,10.50
2022-11-16T19:51:52.164Z,10.50
2022-11-16T19:54:54.486Z,9.50
2022-11-16T19:57:56.657Z,9.73
2022-11-16T20:01:06.953Z,10.82
2022-11-16T20:04:09.412Z,11.40
2022-11-16T20:07:13.485Z,10.80
2022-11-16T20:10:16.420Z,9.27
2022-11-16T20:13:18.636Z,9.95
2022-11-16T20:16:23.447Z,9.63
2022-11-16T20:19:25.693Z,8.53
2022-11-16T20:22:27.895Z,9.27
2022-11-16T20:25:30.151Z,9.85
2022-11-16T20:28:40.731Z,9.25
2022-11-16T20:31:45.318Z,9.52
2022-11-16T20:34:47.539Z,8.27
2022-11-16T20:37:49.744Z,9.97
2022-11-16T20:40:52.008Z,9.18
2022-11-16T20:43:56.653Z,9.00
2022-11-16T20:46:58.924Z,8.75
2022-11-16T20:50:03.154Z,9.20
2022-11-16T20:53:05.343Z,10.03
2022-11-16T20:56:07.817Z,9.43
2022-11-16T20:59:10.017Z,10.00
2022-11-16T21:02:12.501Z,9.77
2022-11-16T21:05:14.842Z,9.60
2022-11-16T21:08:17.183Z,8.47
2022-11-16T21:11:30.492Z,8.75
2022-11-16T21:14:32.798Z,8.63
2022-11-16T21:17:36.223Z,9.32
2022-11-16T21:20:38.524Z,9.10
2022-11-16T21:23:51.409Z,7.43
2022-11-16T21:26:53.638Z,8.52
2022-11-16T21:29:55.900Z,9.27
2022-11-16T21:32:58.054Z,7.97
2022-11-16T21:36:05.501Z,7.67
2022-11-16T21:39:08.114Z,9.00
2022-11-16T21:42:10.523Z,9.27
2022-11-16T21:45:12.747Z,7.88
2022-11-16T21:48:15.275Z,7.88
2022-11-16T21:51:18.942Z,7.97
2022-11-16T21:54:21.122Z,8.47
2022-11-16T21:57:23.413Z,9.05
2022-11-16T22:00:26.989Z,7.05
2022-11-16T22:03:30.997Z,8.63
2022-11-16T22:06:51.628Z,7.40
2022-11-16T22:09:53.865Z,8.37
2022-11-16T22:12:56.068Z,8.02
2022-11-16T22:15:58.532Z,8.45
2022-11-16T22:19:00.752Z,7.65
2022-11-16T22:22:03.350Z,6.87
2022-11-16T22:25:06.206Z,7.77
2022-11-16T22:28:20.631Z,9.20
2022-11-16T22:31:23.303Z,7.20
2022-11-16T22:34:25.549Z,7.65
2022-11-16T22:37:27.703Z,8.73
2022-11-16T22:40:30.140Z,7.77
2022-11-16T22:43:33.142Z,8.90
2022-11-16T22:46:35.620Z,7.25
2022-11-16T22:49:37.799Z,7.88
2022-11-16T22:52:39.959Z,7.63
2022-11-16T22:55:42.131Z,7.63
2022-11-16T22:58:44.345Z,8.60
2022-11-16T23:01:46.549Z,7.65
2022-11-16T23:04:48.764Z,7.93
2022-11-16T23:07:50.947Z,8.90
2022-11-16T23:11:29.227Z,7.13
2022-11-16T23:14:50.105Z,7.60
2022-11-16T23:17:52.303Z,9.43
2022-11-16T23:21:13.088Z,7.28
2022-11-16T23:24:34.429Z,6.50
2022-11-16T23:27:39.661Z,6.43
2022-11-16T23:30:43.081Z,7.55
2022-11-16T23:33:45.333Z,6.85
2022-11-16T23:36:47.520Z,6.90
2022-11-16T23:39:49.811Z,7.03
2022-11-16T23:43:14.453Z,6.87
2022-11-16T23:46:16.642Z,7.35
2022-11-16T23:49:18.797Z,7.35
2022-11-16T23:52:21.019Z,7.45
2022-11-16T23:55:23.505Z,7.70
2022-11-16T23:58:25.699Z,8.40
